createdAt,value
2022-09-11T00:00:51.791Z,72.26
2022-09-11T00:01:51.779Z,71.96
2022-09-11T00:02:51.774Z,71.96
2022-09-11T00:03:51.756Z,72.09
2022-09-11T00:04:51.743Z,72.83
2022-09-11T00:05:51.743Z,74.07
2022-09-11T00:06:51.730Z,73.13
2022-09-11T00:07:51.715Z,72.8
2022-09-11T00:08:51.710Z,72.33
2022-09-11T00:09:51.695Z,71.19
2022-09-11T00:10:51.691Z,70.59
2022-09-11T00:11:51.667Z,70.43
2022-09-11T00:12:51.660Z,70.53
2022-09-11T00:13:51.648Z,69.76
2022-09-11T00:14:51.640Z,70.29
2022-09-11T00:15:51.640Z,70.62
2022-09-11T00:16:51.621Z,71.03
2022-09-11T00:17:51.619Z,69.99
2022-09-11T00:18:51.593Z,68.96
2022-09-11T00:19:51.588Z,68.76
2022-09-11T00:20:51.573Z,69.09
2022-09-11T00:21:51.572Z,71.96
2022-09-11T00:22:51.558Z,73.07
2022-09-11T00:23:51.537Z,71.89
2022-09-11T00:24:51.527Z,71.69
2022-09-11T00:25:51.524Z,71.59
2022-09-11T00:26:51.509Z,71.8
2022-09-11T00:27:51.496Z,71.8
2022-09-11T00:28:51.489Z,72.09
2022-09-11T00:29:51.477Z,72.5
2022-09-11T00:30:51.467Z,73.03
2022-09-11T00:31:51.464Z,73.33
2022-09-11T00:32:51.452Z,73
2022-09-11T00:33:51.431Z,72.8
2022-09-11T00:34:51.427Z,72.89
2022-09-11T00:35:51.412Z,72.8
2022-09-11T00:36:51.402Z,71.96
2022-09-11T00:37:51.389Z,70.49
2022-09-11T00:38:51.385Z,69.76
2022-09-11T00:39:51.367Z,69.02
2022-09-11T00:40:51.363Z,68.4
2022-09-11T00:41:51.354Z,68.19
2022-09-11T00:42:51.344Z,67.46
2022-09-11T00:43:51.328Z,66.73
2022-09-11T00:44:51.329Z,66.56
2022-09-11T00:45:51.307Z,66.47
2022-09-11T00:46:51.298Z,66.89
2022-09-11T00:47:51.284Z,67.96
2022-09-11T00:48:51.273Z,69.02
2022-09-11T00:49:51.271Z,69.53
2022-09-11T00:50:51.269Z,70.06
2022-09-11T00:51:51.244Z,70.36
2022-09-11T00:52:51.249Z,70.69
2022-09-11T00:53:51.222Z,70.86
2022-09-11T00:54:51.210Z,70.69
2022-09-11T00:55:51.201Z,70.62
2022-09-11T00:56:51.192Z,70.83
2022-09-11T00:57:51.173Z,70.09
2022-09-11T00:58:51.168Z,69.86
2022-09-11T00:59:51.156Z,69.82
2022-09-11T01:00:51.146Z,69.29
2022-09-11T01:01:51.159Z,68.73
2022-09-11T01:02:51.127Z,69.89
2022-09-11T01:03:51.116Z,70.93
2022-09-11T01:04:51.099Z,71.53
2022-09-11T01:05:51.091Z,71.63
2022-09-11T01:06:51.082Z,71.33
2022-09-11T01:07:51.073Z,71.63
2022-09-11T01:08:51.054Z,71.43
2022-09-11T01:09:51.047Z,71.33
2022-09-11T01:10:51.041Z,71.36
2022-09-11T01:11:51.039Z,71.66
2022-09-11T01:12:51.029Z,71.77
2022-09-11T01:13:51.002Z,71.86
2022-09-11T01:14:50.998Z,71.93
2022-09-11T01:15:51.008Z,71.73
2022-09-11T01:16:50.972Z,71.43
2022-09-11T01:17:50.963Z,71.53
2022-09-11T01:18:50.953Z,71.96
2022-09-11T01:19:50.941Z,72.16
2022-09-11T01:20:50.934Z,72.9
2022-09-11T01:21:50.925Z,73.07
2022-09-11T01:22:50.914Z,72.97
2022-09-11T01:23:50.898Z,71.26
2022-09-11T01:24:50.887Z,69.69
2022-09-11T01:25:50.880Z,68.26
2022-09-11T01:26:50.861Z,67.33
2022-09-11T01:27:50.859Z,67.13
2022-09-11T01:28:50.843Z,66.6
2022-09-11T01:29:50.837Z,66.6
2022-09-11T01:30:50.835Z,66.73
2022-09-11T01:31:50.813Z,66.63
2022-09-11T01:32:50.806Z,66.73
2022-09-11T01:33:50.789Z,66.83
2022-09-11T01:34:50.784Z,66.83
2022-09-11T01:35:50.772Z,66.53
2022-09-11T01:36:50.767Z,66.39
2022-09-11T01:37:50.751Z,66.39
2022-09-11T01:38:50.737Z,66.09
2022-09-11T01:39:50.738Z,66.2
2022-09-11T01:40:50.717Z,66.09
2022-09-11T01:41:50.722Z,66.73
2022-09-11T01:42:50.709Z,66.6
2022-09-11T01:43:50.684Z,66.3
2022-09-11T01:44:50.676Z,66.23
2022-09-11T01:45:50.666Z,66
2022-09-11T01:46:50.654Z,65.9
2022-09-11T01:47:50.642Z,65.67
2022-09-11T01:48:50.645Z,65.26
2022-09-11T01:49:50.616Z,65.6
2022-09-11T01:50:50.612Z,65.9
2022-09-11T01:51:50.598Z,66.09
2022-09-11T01:52:50.587Z,66.3
2022-09-11T01:53:50.580Z,66.66
2022-09-11T01:54:50.573Z,67.59
2022-09-11T01:55:50.564Z,68.09
2022-09-11T01:56:50.546Z,68.52
2022-09-11T01:57:50.535Z,69.46
2022-09-11T01:58:50.539Z,70.16
2022-09-11T01:59:50.518Z,70.06
2022-09-11T02:00:50.537Z,70.56
2022-09-11T02:01:50.511Z,70.89
2022-09-11T02:02:50.499Z,72.36
2022-09-11T02:03:50.505Z,72.97
2022-09-11T02:04:50.463Z,72.97
2022-09-11T02:05:50.453Z,73.07
2022-09-11T02:06:50.438Z,73.27
2022-09-11T02:07:50.427Z,73.47
2022-09-11T02:08:50.418Z,73.03
2022-09-11T02:09:50.406Z,72.53
2022-09-11T02:10:50.394Z,73.27
2022-09-11T02:11:50.384Z,74.1
2022-09-11T02:12:50.378Z,74.6
2022-09-11T02:13:50.375Z,74.94
2022-09-11T02:14:50.356Z,76.42
2022-09-11T02:15:50.352Z,77.32
2022-09-11T02:16:50.345Z,76.98
2022-09-11T02:17:50.317Z,76.04
2022-09-11T02:18:50.315Z,75.6
2022-09-11T02:19:50.301Z,75.21
2022-09-11T02:20:50.295Z,74.97
2022-09-11T02:21:50.279Z,75.54
2022-09-11T02:22:50.282Z,75.95
2022-09-11T02:23:50.255Z,74.77
2022-09-11T02:24:50.252Z,74.27
2022-09-11T02:25:50.237Z,74.67
2022-09-11T02:26:50.226Z,74.23
2022-09-11T02:27:50.213Z,73.93
2022-09-11T02:28:50.210Z,73.6
2022-09-11T02:29:50.189Z,73
2022-09-11T02:30:50.181Z,73.7
2022-09-11T02:31:50.176Z,75.04
2022-09-11T02:32:50.170Z,74.94
2022-09-11T02:33:50.150Z,75.27
2022-09-11T02:34:50.140Z,74.03
2022-09-11T02:35:50.132Z,72.5
2022-09-11T02:36:50.115Z,71.33
2022-09-11T02:37:50.111Z,69.66
2022-09-11T02:38:50.102Z,68.86
2022-09-11T02:39:50.093Z,68.43
2022-09-11T02:40:50.076Z,68.26
2022-09-11T02:41:50.093Z,68.56
2022-09-11T02:42:50.063Z,68.66
2022-09-11T02:43:50.056Z,68.33
2022-09-11T02:44:50.034Z,68.26
2022-09-11T02:45:50.020Z,68.56
2022-09-11T02:46:50.013Z,68.99
2022-09-11T02:47:50.023Z,69.39
2022-09-11T02:48:49.989Z,69.39
2022-09-11T02:49:49.975Z,69.19
2022-09-11T02:50:49.976Z,69.59
2022-09-11T02:51:49.967Z,70.12
2022-09-11T02:52:49.946Z,70.43
2022-09-11T02:53:49.932Z,70.46
2022-09-11T02:54:49.927Z,71.16
2022-09-11T02:55:49.912Z,71.06
2022-09-11T02:56:49.915Z,70.76
2022-09-11T02:57:49.898Z,70.62
2022-09-11T02:58:49.884Z,69.69
2022-09-11T02:59:49.872Z,69.16
2022-09-11T03:00:49.863Z,69.16
2022-09-11T03:01:49.851Z,69.49
2022-09-11T03:02:49.851Z,69.53
2022-09-11T03:03:49.833Z,70.69
2022-09-11T03:04:49.813Z,72.13
2022-09-11T03:05:49.808Z,73.74
2022-09-11T03:06:49.802Z,74.88
2022-09-11T03:07:49.788Z,75.58
2022-09-11T03:08:49.776Z,75.04
2022-09-11T03:09:49.788Z,73.97
2022-09-11T03:10:49.755Z,73.33
2022-09-11T03:11:49.745Z,72.53
2022-09-11T03:12:49.728Z,72.19
2022-09-11T03:13:49.726Z,71.46
2022-09-11T03:14:49.725Z,71.16
2022-09-11T03:15:49.714Z,70.73
2022-09-11T03:16:49.688Z,70.43
2022-09-11T03:17:49.671Z,70.32
2022-09-11T03:18:49.666Z,70.46
2022-09-11T03:19:49.658Z,70.86
2022-09-11T03:20:49.643Z,71.39
2022-09-11T03:21:49.627Z,71.83
2022-09-11T03:22:49.628Z,71.59
2022-09-11T03:23:49.608Z,71.39
2022-09-11T03:24:49.599Z,71.39
2022-09-11T03:25:49.591Z,71.16
2022-09-11T03:26:49.577Z,71.16
2022-09-11T03:27:49.568Z,71.3
2022-09-11T03:28:49.549Z,71.69
2022-09-11T03:29:49.544Z,71.8
2022-09-11T03:30:49.536Z,71.66
2022-09-11T03:31:49.533Z,71.36
2022-09-11T03:32:49.512Z,71.69
2022-09-11T03:33:49.507Z,71.36
2022-09-11T03:34:49.495Z,71.03
2022-09-11T03:35:49.484Z,70.43
2022-09-11T03:36:49.472Z,70.09
2022-09-11T03:37:49.468Z,70.53
2022-09-11T03:38:49.442Z,70.23
2022-09-11T03:39:49.431Z,70.66
2022-09-11T03:40:49.421Z,71.86
2022-09-11T03:41:49.413Z,72
2022-09-11T03:42:49.403Z,72.23
2022-09-11T03:43:49.400Z,72.73
2022-09-11T03:44:49.386Z,72.6
2022-09-11T03:45:49.372Z,71.66
2022-09-11T03:46:49.362Z,70.62
2022-09-11T03:47:49.350Z,70.32
2022-09-11T03:48:49.339Z,71.06
2022-09-11T03:49:49.331Z,71.8
2022-09-11T03:50:49.312Z,72
2022-09-11T03:51:49.307Z,71.46
2022-09-11T03:52:49.298Z,71.46
2022-09-11T03:53:49.285Z,71.5
2022-09-11T03:54:49.270Z,73.16
2022-09-11T03:55:49.256Z,74.54
2022-09-11T03:56:49.241Z,75.45
2022-09-11T03:57:49.230Z,75.88
2022-09-11T03:58:49.220Z,76.48
2022-09-11T03:59:49.216Z,76.38
2022-09-11T04:00:49.203Z,76.15
2022-09-11T04:01:49.190Z,76.28
2022-09-11T04:02:49.174Z,76.04
2022-09-11T04:03:49.172Z,75.01
2022-09-11T04:04:49.160Z,75.1
2022-09-11T04:05:49.148Z,74.8
2022-09-11T04:06:49.139Z,74.37
2022-09-11T04:07:49.123Z,73.63
2022-09-11T04:08:49.108Z,73.13
2022-09-11T04:09:49.101Z,73.57
2022-09-11T04:10:49.112Z,73.97
2022-09-11T04:11:49.086Z,73.73
2022-09-11T04:12:49.072Z,73
2022-09-11T04:13:49.094Z,72.26
2022-09-11T04:14:49.052Z,71.53
2022-09-11T04:15:49.059Z,70.69
2022-09-11T04:16:49.023Z,71.12
2022-09-11T04:17:49.028Z,71.66
2022-09-11T04:18:49.019Z,71.76
2022-09-11T04:19:48.992Z,72.26
2022-09-11T04:20:48.993Z,71.86
2022-09-11T04:21:49.007Z,72.5
2022-09-11T04:22:48.961Z,72.69
2022-09-11T04:23:48.961Z,73
2022-09-11T04:24:48.940Z,73.13
2022-09-11T04:25:48.922Z,73.1
2022-09-11T04:26:48.917Z,72.8
2022-09-11T04:27:48.901Z,72.89
2022-09-11T04:28:48.885Z,73.3
2022-09-11T04:29:48.880Z,73.19
2022-09-11T04:30:48.863Z,73.53
2022-09-11T04:31:48.860Z,73.93
2022-09-11T04:32:48.857Z,74.03
2022-09-11T04:33:48.828Z,74.13
2022-09-11T04:34:48.822Z,73.83
2022-09-11T04:35:48.807Z,73.19
2022-09-11T04:36:48.802Z,73.19
2022-09-11T04:37:48.791Z,73.26
2022-09-11T04:38:48.776Z,72.76
2022-09-11T04:39:48.768Z,72.69
2022-09-11T04:40:48.759Z,73.73
2022-09-11T04:41:48.748Z,74.37
2022-09-11T04:42:48.736Z,74.87
2022-09-11T04:43:48.721Z,75.57
2022-09-11T04:44:48.713Z,75.37
2022-09-11T04:45:48.703Z,75.47
2022-09-11T04:46:48.695Z,76.04
2022-09-11T04:47:48.676Z,76.01
2022-09-11T04:48:48.665Z,76.31
2022-09-11T04:49:48.655Z,76.51
2022-09-11T04:50:48.649Z,76.61
2022-09-11T04:51:48.664Z,76.54
2022-09-11T04:52:48.632Z,76.71
2022-09-11T04:53:48.619Z,76.85
2022-09-11T04:54:48.598Z,76.95
2022-09-11T04:55:48.595Z,77.01
2022-09-11T04:56:48.590Z,77.05
2022-09-11T04:57:48.572Z,77.25
2022-09-11T04:58:48.559Z,76.95
2022-09-11T04:59:48.542Z,76.91
2022-09-11T05:00:48.539Z,77.01
2022-09-11T05:01:48.529Z,76.71
2022-09-11T05:02:48.520Z,76.37
2022-09-11T05:03:48.502Z,76.11
2022-09-11T05:04:48.523Z,76.17
2022-09-11T05:05:48.478Z,76.07
2022-09-11T05:06:48.468Z,76.17
2022-09-11T05:07:48.466Z,76.28
2022-09-11T05:08:48.444Z,76.17
2022-09-11T05:09:48.433Z,76.51
2022-09-11T05:10:48.423Z,76.71
2022-09-11T05:11:48.411Z,76.28
2022-09-11T05:12:48.402Z,75.84
2022-09-11T05:13:48.397Z,76.04
2022-09-11T05:14:48.379Z,75.84
2022-09-11T05:15:48.367Z,76.28
2022-09-11T05:16:48.360Z,76.47
2022-09-11T05:17:48.346Z,76.57
2022-09-11T05:18:48.337Z,76.57
2022-09-11T05:19:48.330Z,76.47
2022-09-11T05:20:48.325Z,76.37
2022-09-11T05:21:48.297Z,75.84
2022-09-11T05:22:48.289Z,75.34
2022-09-11T05:23:48.275Z,75.1
2022-09-11T05:24:48.263Z,74.7
2022-09-11T05:25:48.260Z,74.8
2022-09-11T05:26:48.247Z,75.04
2022-09-11T05:27:48.241Z,75.23
2022-09-11T05:28:48.223Z,75.34
2022-09-11T05:29:48.210Z,75.97
2022-09-11T05:30:48.201Z,76.47
2022-09-11T05:31:48.194Z,76.71
2022-09-11T05:32:48.182Z,77.11
2022-09-11T05:33:48.170Z,77.08
2022-09-11T05:34:48.158Z,76.87
2022-09-11T05:35:48.143Z,76.57
2022-09-11T05:36:48.133Z,76.47
2022-09-11T05:37:48.144Z,76.14
2022-09-11T05:38:48.120Z,75.2
2022-09-11T05:39:48.097Z,74.87
2022-09-11T05:40:48.094Z,74.56
2022-09-11T05:41:48.077Z,74.26
2022-09-11T05:42:48.066Z,74.46
2022-09-11T05:43:48.053Z,74.5
2022-09-11T05:44:48.050Z,74.06
2022-09-11T05:45:48.032Z,74.9
2022-09-11T05:46:48.030Z,74.8
2022-09-11T05:47:48.007Z,75.1
2022-09-11T05:48:48.007Z,74.6
2022-09-11T05:49:47.988Z,74.6
2022-09-11T05:50:47.982Z,74.16
2022-09-11T05:51:47.976Z,74.06
2022-09-11T05:52:47.956Z,73.96
2022-09-11T05:53:47.949Z,73.96
2022-09-11T05:54:47.944Z,73.46
2022-09-11T05:55:47.918Z,74.06
2022-09-11T05:56:47.910Z,74.4
2022-09-11T05:57:47.916Z,74.26
2022-09-11T05:58:47.913Z,74.16
2022-09-11T05:59:47.882Z,73.86
2022-09-11T06:00:47.876Z,74.06
2022-09-11T06:01:47.855Z,73.76
2022-09-11T06:02:47.842Z,73.76
2022-09-11T06:03:47.845Z,73.43
2022-09-11T06:04:47.821Z,73.56
2022-09-11T06:05:47.816Z,73.13
2022-09-11T06:06:47.826Z,73.33
2022-09-11T06:07:47.787Z,73.03
2022-09-11T06:08:47.781Z,72.83
2022-09-11T06:09:47.782Z,72.92
2022-09-11T06:10:47.755Z,73.13
2022-09-11T06:11:47.746Z,73.22
2022-09-11T06:12:47.732Z,73.33
2022-09-11T06:13:47.720Z,72.79
2022-09-11T06:14:47.711Z,72.69
2022-09-11T06:15:47.699Z,72.39
2022-09-11T06:16:47.689Z,72.83
2022-09-11T06:17:47.696Z,73.13
2022-09-11T06:18:47.670Z,72.92
2022-09-11T06:19:47.660Z,72.86
2022-09-11T06:20:47.651Z,71.76
2022-09-11T06:21:47.635Z,72.19
2022-09-11T06:22:47.626Z,72.39
2022-09-11T06:23:47.611Z,72.69
2022-09-11T06:24:47.596Z,71.83
2022-09-11T06:25:47.590Z,71.29
2022-09-11T06:26:47.585Z,70.06
2022-09-11T06:27:47.587Z,69.86
2022-09-11T06:28:47.558Z,69.26
2022-09-11T06:29:47.551Z,69.46
2022-09-11T06:30:47.538Z,69.36
2022-09-11T06:31:47.525Z,69.06
2022-09-11T06:32:47.522Z,69.29
2022-09-11T06:33:47.502Z,69.69
2022-09-11T06:34:47.518Z,70.23
2022-09-11T06:35:47.476Z,69.99
2022-09-11T06:36:47.468Z,69.99
2022-09-11T06:37:47.499Z,69.79
2022-09-11T06:38:47.454Z,70.29
2022-09-11T06:39:47.444Z,69.56
2022-09-11T06:40:47.434Z,68.76
2022-09-11T06:41:47.412Z,68.96
2022-09-11T06:42:47.402Z,68.76
2022-09-11T06:43:47.395Z,69.39
2022-09-11T06:44:47.386Z,69.02
2022-09-11T06:45:47.374Z,69.73
2022-09-11T06:46:47.378Z,69.62
2022-09-11T06:47:47.353Z,70.59
2022-09-11T06:48:47.343Z,71.42
2022-09-11T06:49:47.327Z,71.23
2022-09-11T06:50:47.328Z,70.92
2022-09-11T06:51:47.309Z,71.19
2022-09-11T06:52:47.295Z,70.99
2022-09-11T06:53:47.283Z,70.89
2022-09-11T06:54:47.277Z,70.79
2022-09-11T06:55:47.263Z,70.06
2022-09-11T06:56:47.257Z,70.12
2022-09-11T06:57:47.252Z,69.43
2022-09-11T06:58:47.237Z,69.09
2022-09-11T06:59:47.223Z,68.49
2022-09-11T07:00:47.211Z,68.82
2022-09-11T07:01:47.203Z,69.56
2022-09-11T07:02:47.196Z,69.86
2022-09-11T07:03:47.191Z,69.76
2022-09-11T07:04:47.168Z,69.76
2022-09-11T07:05:47.159Z,69.93
2022-09-11T07:06:47.150Z,69.39
2022-09-11T07:07:47.136Z,68.89
2022-09-11T07:08:47.126Z,68.7
2022-09-11T07:09:47.120Z,68.36
2022-09-11T07:10:47.107Z,68.1
2022-09-11T07:11:47.105Z,68.73
2022-09-11T07:12:47.104Z,69.09
2022-09-11T07:13:47.070Z,68.4
2022-09-11T07:14:47.062Z,67.9
2022-09-11T07:15:47.050Z,68.13
2022-09-11T07:16:47.041Z,68.73
2022-09-11T07:17:47.034Z,68.59
2022-09-11T07:18:47.030Z,67.96
2022-09-11T07:19:47.059Z,66.96
2022-09-11T07:20:47.007Z,68.13
2022-09-11T07:21:46.988Z,68.63
2022-09-11T07:22:46.982Z,68.49
2022-09-11T07:23:46.970Z,68.1
2022-09-11T07:24:46.965Z,67.66
2022-09-11T07:25:46.943Z,67.23
2022-09-11T07:26:46.931Z,67.33
2022-09-11T07:27:46.928Z,66.93
2022-09-11T07:28:46.913Z,66.93
2022-09-11T07:29:46.910Z,66.43
2022-09-11T07:30:46.890Z,66.4
2022-09-11T07:31:46.881Z,66.93
2022-09-11T07:32:46.887Z,66.4
2022-09-11T07:33:46.858Z,66.66
2022-09-11T07:34:46.850Z,67.26
2022-09-11T07:35:46.838Z,67.69
2022-09-11T07:36:46.831Z,67.16
2022-09-11T07:37:46.830Z,67
2022-09-11T07:38:46.822Z,67.69
2022-09-11T07:39:46.809Z,68.23
2022-09-11T07:40:46.782Z,68.33
2022-09-11T07:41:46.791Z,68.33
2022-09-11T07:42:46.779Z,67.93
2022-09-11T07:43:46.752Z,67.43
2022-09-11T07:44:46.741Z,67.93
2022-09-11T07:45:46.739Z,67.53
2022-09-11T07:46:46.738Z,67.63
2022-09-11T07:47:46.708Z,67.49
2022-09-11T07:48:46.701Z,66.8
2022-09-11T07:49:46.684Z,66.93
2022-09-11T07:50:46.678Z,68.06
2022-09-11T07:51:46.673Z,67.49
2022-09-11T07:52:46.660Z,66.8
2022-09-11T07:53:46.645Z,66.6
2022-09-11T07:54:46.632Z,67
2022-09-11T07:55:46.623Z,66.39
2022-09-11T07:56:46.613Z,67.1
2022-09-11T07:57:46.610Z,66.27
2022-09-11T07:58:46.595Z,66.36
2022-09-11T07:59:46.615Z,65.67
2022-09-11T08:00:46.576Z,66.36
2022-09-11T08:01:46.595Z,66.03
2022-09-11T08:02:46.555Z,65.64
2022-09-11T08:03:46.545Z,65.14
2022-09-11T08:04:46.539Z,64.74
2022-09-11T08:05:46.518Z,65.53
2022-09-11T08:06:46.523Z,65.44
2022-09-11T08:07:46.515Z,64.74
2022-09-11T08:08:46.486Z,64.74
2022-09-11T08:09:46.479Z,65.44
2022-09-11T08:10:46.462Z,65.34
2022-09-11T08:11:46.450Z,65.14
2022-09-11T08:12:46.448Z,65.01
2022-09-11T08:13:46.428Z,64.81
2022-09-11T08:14:46.420Z,64.58
2022-09-11T08:15:46.416Z,64.11
2022-09-11T08:16:46.395Z,64.61
2022-09-11T08:17:46.389Z,64.51
2022-09-11T08:18:46.375Z,65.04
2022-09-11T08:19:46.368Z,65.14
2022-09-11T08:20:46.358Z,64.74
2022-09-11T08:21:46.350Z,65.44
2022-09-11T08:22:46.338Z,65.07
2022-09-11T08:23:46.325Z,65.47
2022-09-11T08:24:46.314Z,65.53
2022-09-11T08:25:46.299Z,65.47
2022-09-11T08:26:46.288Z,65.23
2022-09-11T08:27:46.290Z,65.23
2022-09-11T08:28:46.265Z,65.01
2022-09-11T08:29:46.260Z,64.24
2022-09-11T08:30:46.264Z,64.87
2022-09-11T08:31:46.233Z,65.37
2022-09-11T08:32:46.227Z,65.56
2022-09-11T08:33:46.228Z,66.06
2022-09-11T08:34:46.203Z,65.87
2022-09-11T08:35:46.191Z,65.53
2022-09-11T08:36:46.180Z,65.14
2022-09-11T08:37:46.173Z,65.23
2022-09-11T08:38:46.162Z,65.17
2022-09-11T08:39:46.159Z,65.14
2022-09-11T08:40:46.138Z,65.04
2022-09-11T08:41:46.133Z,64.67
2022-09-11T08:42:46.135Z,65.07
2022-09-11T08:43:46.106Z,65.37
2022-09-11T08:44:46.105Z,65.34
2022-09-11T08:45:46.089Z,64.71
2022-09-11T08:46:46.109Z,64.48
2022-09-11T08:47:46.074Z,64.28
2022-09-11T08:48:46.054Z,63.78
2022-09-11T08:49:46.050Z,64.11
2022-09-11T08:50:46.037Z,64.64
2022-09-11T08:51:46.021Z,64.84
2022-09-11T08:52:46.020Z,65.37
2022-09-11T08:53:45.997Z,65.8
2022-09-11T08:54:45.988Z,66.17
2022-09-11T08:55:45.979Z,65.94
2022-09-11T08:56:45.968Z,65.53
2022-09-11T08:57:45.963Z,65.2
2022-09-11T08:58:45.944Z,64.71
2022-09-11T08:59:45.947Z,64.87
2022-09-11T09:00:45.920Z,66.66
2022-09-11T09:01:45.913Z,67.76
2022-09-11T09:02:45.901Z,67.66
2022-09-11T09:03:45.902Z,67.3
2022-09-11T09:04:45.895Z,66.56
2022-09-11T09:05:45.867Z,65.94
2022-09-11T09:06:45.858Z,65.08
2022-09-11T09:07:45.865Z,64.58
2022-09-11T09:08:45.838Z,64.71
2022-09-11T09:09:45.832Z,64.58
2022-09-11T09:10:45.840Z,64.07
2022-09-11T09:11:45.813Z,64.11
2022-09-11T09:12:45.802Z,64.21
2022-09-11T09:13:45.782Z,64.44
2022-09-11T09:14:45.782Z,64.84
2022-09-11T09:15:45.815Z,65.17
2022-09-11T09:16:45.753Z,65.37
2022-09-11T09:17:45.752Z,65.8
2022-09-11T09:18:45.730Z,66.39
2022-09-11T09:19:45.718Z,66.7
2022-09-11T09:20:45.717Z,66.09
2022-09-11T09:21:45.698Z,66.3
2022-09-11T09:22:45.696Z,66.3
2022-09-11T09:23:45.703Z,65.56
2022-09-11T09:24:45.663Z,65.77
2022-09-11T09:25:45.652Z,65.6
2022-09-11T09:26:45.649Z,66.53
2022-09-11T09:27:45.632Z,67.06
2022-09-11T09:28:45.624Z,67.13
2022-09-11T09:29:45.611Z,66.8
2022-09-11T09:30:45.600Z,66.86
2022-09-11T09:31:45.592Z,67.66
2022-09-11T09:32:45.583Z,67.99
2022-09-11T09:33:45.566Z,68.19
2022-09-11T09:34:45.558Z,67.96
2022-09-11T09:35:45.553Z,67.96
2022-09-11T09:36:45.532Z,67.43
2022-09-11T09:37:45.529Z,67.19
2022-09-11T09:38:45.516Z,66.17
2022-09-11T09:39:45.505Z,65.2
2022-09-11T09:40:45.492Z,64.48
2022-09-11T09:41:45.486Z,63.88
2022-09-11T09:42:45.481Z,63.55
2022-09-11T09:43:45.457Z,63.22
2022-09-11T09:44:45.456Z,62.69
2022-09-11T09:45:45.449Z,61.99
2022-09-11T09:46:45.431Z,61.27
2022-09-11T09:47:45.416Z,61.24
2022-09-11T09:48:45.412Z,60.52
2022-09-11T09:49:45.400Z,60.22
2022-09-11T09:50:45.384Z,59.52
2022-09-11T09:51:45.382Z,59.85
2022-09-11T09:52:45.363Z,60.84
2022-09-11T09:53:45.357Z,60.52
2022-09-11T09:54:45.347Z,59.52
2022-09-11T09:55:45.330Z,58.3
2022-09-11T09:56:45.322Z,57.87
2022-09-11T09:57:45.315Z,57.35
2022-09-11T09:58:45.300Z,56.93
2022-09-11T09:59:45.291Z,57.35
2022-09-11T10:00:45.274Z,57.68
2022-09-11T10:01:45.271Z,58.3
2022-09-11T10:02:45.269Z,58.53
2022-09-11T10:03:45.242Z,58.95
2022-09-11T10:04:45.235Z,59.78
2022-09-11T10:05:45.223Z,59.95
2022-09-11T10:06:45.211Z,60.47
2022-09-11T10:07:45.205Z,60.55
2022-09-11T10:08:45.208Z,59.72
2022-09-11T10:09:45.181Z,58.97
2022-09-11T10:10:45.166Z,58.47
2022-09-11T10:11:45.158Z,57.45
2022-09-11T10:12:45.147Z,57.9
2022-09-11T10:13:45.154Z,58.53
2022-09-11T10:14:45.128Z,59.35
2022-09-11T10:15:45.117Z,60.08
2022-09-11T10:16:45.109Z,60.38
2022-09-11T10:17:45.094Z,60.05
2022-09-11T10:18:45.087Z,59.92
2022-09-11T10:19:45.084Z,59.32
2022-09-11T10:20:45.064Z,59.22
2022-09-11T10:21:45.048Z,59.12
2022-09-11T10:22:45.053Z,59.03
2022-09-11T10:23:45.035Z,58.92
2022-09-11T10:24:45.025Z,58.9
2022-09-11T10:25:45.007Z,58.57
2022-09-11T10:26:44.995Z,57.75
2022-09-11T10:27:44.997Z,57.45
2022-09-11T10:28:44.979Z,56.93
2022-09-11T10:29:44.967Z,56.93
2022-09-11T10:30:44.956Z,56.83
2022-09-11T10:31:44.948Z,58.2
2022-09-11T10:32:44.940Z,59.25
2022-09-11T10:33:44.925Z,60.57
2022-09-11T10:34:44.910Z,61.1
2022-09-11T10:35:44.904Z,62.35
2022-09-11T10:36:44.896Z,63.91
2022-09-11T10:37:44.882Z,64.54
2022-09-11T10:38:44.867Z,64.64
2022-09-11T10:39:44.864Z,64.61
2022-09-11T10:40:44.856Z,64.01
2022-09-11T10:41:44.834Z,64.57
2022-09-11T10:42:44.828Z,65.67
2022-09-11T10:43:44.830Z,66
2022-09-11T10:44:44.807Z,66.3
2022-09-11T10:45:44.798Z,66.6
2022-09-11T10:46:44.792Z,66.27
2022-09-11T10:47:45.284Z,65.73
2022-09-11T10:48:44.758Z,64.78
2022-09-11T10:49:44.754Z,63.65
2022-09-11T10:50:44.741Z,63.85
2022-09-11T10:51:44.731Z,64.31
2022-09-11T10:52:44.719Z,65.23
2022-09-11T10:53:44.762Z,65.47
2022-09-11T10:54:44.701Z,65.64
2022-09-11T10:55:44.689Z,64.28
2022-09-11T10:56:44.685Z,63.45
2022-09-11T10:57:44.668Z,62.32
2022-09-11T10:58:44.653Z,61.5
2022-09-11T10:59:44.641Z,61.07
2022-09-11T11:00:44.640Z,60.38
2022-09-11T11:01:44.691Z,60.47
2022-09-11T11:02:44.615Z,61
2022-09-11T11:03:44.602Z,61.07
2022-09-11T11:04:44.598Z,60.42
2022-09-11T11:05:44.609Z,59.49
2022-09-11T11:06:44.569Z,58.9
2022-09-11T11:07:44.557Z,59.55
2022-09-11T11:08:44.554Z,59.45
2022-09-11T11:09:44.535Z,59.65
2022-09-11T11:10:44.528Z,59.49
2022-09-11T11:11:44.521Z,57.82
2022-09-11T11:12:44.529Z,57.69
2022-09-11T11:13:44.494Z,55.83
2022-09-11T11:14:44.493Z,54.91
2022-09-11T11:15:44.479Z,54.52
2022-09-11T11:16:44.459Z,53.8
2022-09-11T11:17:44.464Z,53.7
2022-09-11T11:18:44.446Z,54.35
2022-09-11T11:19:44.434Z,54.67
2022-09-11T11:20:44.433Z,55.61
2022-09-11T11:21:44.422Z,56.43
2022-09-11T11:22:44.419Z,56.83
2022-09-11T11:23:44.413Z,57.13
2022-09-11T11:24:44.378Z,56.51
2022-09-11T11:25:44.370Z,55.68
2022-09-11T11:26:44.387Z,55.91
2022-09-11T11:27:44.338Z,55.78
2022-09-11T11:28:44.348Z,55.68
2022-09-11T11:29:44.315Z,55.83
2022-09-11T11:30:44.306Z,56.46
2022-09-11T11:31:44.290Z,56.76
2022-09-11T11:32:44.285Z,56.4
2022-09-11T11:33:44.278Z,56.21
2022-09-11T11:34:44.267Z,56.21
2022-09-11T11:35:44.264Z,55.58
2022-09-11T11:36:44.268Z,55.39
2022-09-11T11:37:44.229Z,56.01
2022-09-11T11:38:44.225Z,56.93
2022-09-11T11:39:44.213Z,56.95
2022-09-11T11:40:44.203Z,57.25
2022-09-11T11:41:44.204Z,57.25
2022-09-11T11:42:44.184Z,57.58
2022-09-11T11:43:44.170Z,58.53
2022-09-11T11:44:44.157Z,58.4
2022-09-11T11:45:44.157Z,58.17
2022-09-11T11:46:44.142Z,57.65
2022-09-11T11:47:44.129Z,57.25
2022-09-11T11:48:44.114Z,56.85
2022-09-11T11:49:44.112Z,56.83
2022-09-11T11:50:44.097Z,57.38
2022-09-11T11:51:44.084Z,59.03
2022-09-11T11:52:44.077Z,58.27
2022-09-11T11:53:44.072Z,57.53
2022-09-11T11:54:44.057Z,56.48
2022-09-11T11:55:44.051Z,55.43
2022-09-11T11:56:44.041Z,55.24
2022-09-11T11:57:44.029Z,54.74
2022-09-11T11:58:44.012Z,54.74
2022-09-11T11:59:43.999Z,54.86
2022-09-11T12:00:43.996Z,54.64
2022-09-11T12:01:43.983Z,54.42
2022-09-11T12:02:43.975Z,54.14
2022-09-11T12:03:43.970Z,54.22
2022-09-11T12:04:43.957Z,53.8
2022-09-11T12:05:43.937Z,53.4
2022-09-11T12:06:43.928Z,53.82
2022-09-11T12:07:43.911Z,53.5
2022-09-11T12:08:43.903Z,53.5
2022-09-11T12:09:43.900Z,52.78
2022-09-11T12:10:43.892Z,51.18
2022-09-11T12:11:43.873Z,50.26
2022-09-11T12:12:43.867Z,49.99
2022-09-11T12:13:43.849Z,50.19
2022-09-11T12:14:43.841Z,50.29
2022-09-11T12:15:43.832Z,51.77
2022-09-11T12:16:43.824Z,53.33
2022-09-11T12:17:43.812Z,54.96
2022-09-11T12:18:43.794Z,56.23
2022-09-11T12:19:43.789Z,56.83
2022-09-11T12:20:43.774Z,57.65
2022-09-11T12:21:43.767Z,57.55
2022-09-11T12:22:43.767Z,56.51
2022-09-11T12:23:43.743Z,55.66
2022-09-11T12:24:43.732Z,54.22
2022-09-11T12:25:43.729Z,54.02
2022-09-11T12:26:43.727Z,54.77
2022-09-11T12:27:43.715Z,56.11
2022-09-11T12:28:43.696Z,56.4
2022-09-11T12:29:43.679Z,55.76
2022-09-11T12:30:43.666Z,54.64
2022-09-11T12:31:43.656Z,52.56
2022-09-11T12:32:43.655Z,50.78
2022-09-11T12:33:43.635Z,49.01
2022-09-11T12:34:43.627Z,48.66
2022-09-11T12:35:43.611Z,48.42
2022-09-11T12:36:43.605Z,48.94
2022-09-11T12:37:43.589Z,47.31
2022-09-11T12:38:43.580Z,47.24
2022-09-11T12:39:43.575Z,47.19
2022-09-11T12:40:43.564Z,47.41
2022-09-11T12:41:43.548Z,45.73
2022-09-11T12:42:43.543Z,44.27
2022-09-11T12:43:43.533Z,42.76
2022-09-11T12:44:43.517Z,41.74
2022-09-11T12:45:43.520Z,42.25
2022-09-11T12:46:43.563Z,42.11
2022-09-11T12:47:43.513Z,40.68
2022-09-11T12:48:43.472Z,39.12
2022-09-11T12:49:43.476Z,37.68
2022-09-11T12:50:43.466Z,37.05
2022-09-11T12:51:43.456Z,35.36
2022-09-11T12:52:43.440Z,0
2022-09-11T12:53:43.440Z,38.42
2022-09-11T12:54:43.414Z,41.94
2022-09-11T12:55:43.404Z,44.71
2022-09-11T12:56:43.394Z,46.99